createdAt,value
2016-12-06T00:00:14.294Z,0.41
2016-12-06T00:01:14.389Z,0.31
2016-12-06T00:02:14.336Z,0.4
2016-12-06T00:03:14.500Z,0.26
2016-12-06T00:04:14.573Z,0.23
2016-12-06T00:05:14.554Z,0.43
2016-12-06T00:06:14.595Z,0.37
2016-12-06T00:07:14.734Z,0.38
2016-12-06T00:08:14.928Z,0.38
2016-12-06T00:09:14.579Z,0.35
2016-12-06T00:10:14.467Z,0.23
2016-12-06T00:11:14.392Z,0.25
2016-12-06T00:12:14.741Z,0.26
2016-12-06T00:13:14.669Z,0.3
2016-12-06T00:14:14.490Z,0.3
2016-12-06T00:15:14.776Z,0.26
2016-12-06T00:16:14.421Z,0.26
2016-12-06T00:17:14.484Z,0.28
2016-12-06T00:18:14.747Z,0.22
2016-12-06T00:19:14.568Z,0.23
2016-12-06T00:20:14.966Z,0.26
2016-12-06T00:21:14.615Z,0.26
2016-12-06T00:22:14.378Z,0.4
2016-12-06T00:23:14.397Z,0.34
2016-12-06T00:24:14.603Z,0.3
2016-12-06T00:25:14.588Z,0.23
2016-12-06T00:26:14.369Z,0.35
2016-12-06T00:27:14.425Z,0.31
2016-12-06T00:28:14.412Z,0.23
2016-12-06T00:29:14.609Z,0.23
2016-12-06T00:30:14.453Z,0.3
2016-12-06T00:31:14.455Z,0.15
2016-12-06T00:32:14.493Z,0.25
2016-12-06T00:33:14.522Z,0.19
2016-12-06T00:34:14.553Z,0.31
2016-12-06T00:35:14.529Z,0.34
2016-12-06T00:36:14.488Z,0.3
2016-12-06T00:37:14.501Z,0.23
2016-12-06T00:38:14.420Z,0.23
2016-12-06T00:39:14.411Z,0.26
2016-12-06T00:40:14.614Z,0.31
2016-12-06T00:41:14.454Z,0.41
2016-12-06T00:42:14.381Z,0.23
2016-12-06T00:43:14.520Z,0.28
2016-12-06T00:44:16.511Z,0.23
2016-12-06T00:45:14.457Z,0.26
2016-12-06T00:46:14.402Z,0.17
2016-12-06T00:47:14.441Z,0.23
2016-12-06T00:48:14.425Z,0.22
2016-12-06T00:49:14.522Z,0.3
2016-12-06T00:50:14.435Z,0.28
2016-12-06T00:51:14.540Z,0.1
2016-12-06T00:52:14.400Z,0.2
2016-12-06T00:53:14.539Z,0.13
2016-12-06T00:54:14.416Z,0.15
2016-12-06T00:55:14.567Z,0.13
2016-12-06T00:56:14.380Z,0.15
2016-12-06T00:57:14.511Z,0.25
2016-12-06T00:58:14.454Z,0.17
2016-12-06T00:59:14.440Z,0.16
2016-12-06T01:00:14.372Z,0.22
2016-12-06T01:01:14.412Z,0.28
2016-12-06T01:02:14.421Z,0.3
2016-12-06T01:03:14.421Z,0.25
2016-12-06T01:04:14.442Z,0.15
2016-12-06T01:05:14.522Z,0.08
2016-12-06T01:06:14.382Z,0.13
2016-12-06T01:07:14.464Z,0.15
2016-12-06T01:08:14.377Z,0.13
2016-12-06T01:09:14.458Z,0.13
2016-12-06T01:10:14.390Z,0.15
2016-12-06T01:11:14.422Z,0.15
2016-12-06T01:12:14.392Z,0.19
2016-12-06T01:13:14.537Z,0.08
2016-12-06T01:14:14.416Z,0.16
2016-12-06T01:15:14.422Z,0.16
2016-12-06T01:16:14.432Z,0.15
2016-12-06T01:17:14.438Z,0.15
2016-12-06T01:18:14.472Z,0.13
2016-12-06T01:19:14.518Z,0.07
2016-12-06T01:20:14.500Z,0.12
2016-12-06T01:21:14.411Z,0.07
2016-12-06T01:22:14.450Z,0.01
2016-12-06T01:23:14.439Z,0.08
2016-12-06T01:24:14.481Z,0.04
2016-12-06T01:25:14.452Z,-0.01
2016-12-06T01:26:14.432Z,0.12
2016-12-06T01:27:14.537Z,0.07
2016-12-06T01:28:14.488Z,0.15
2016-12-06T01:29:14.579Z,0.04
2016-12-06T01:30:14.431Z,-0.01
2016-12-06T01:31:14.494Z,0.05
2016-12-06T01:32:14.412Z,0.05
2016-12-06T01:33:14.526Z,0.05
2016-12-06T01:34:14.432Z,0.05
2016-12-06T01:35:14.633Z,0.07
2016-12-06T01:36:14.463Z,0.1
2016-12-06T01:37:14.437Z,0.12
2016-12-06T01:38:14.582Z,0.04
2016-12-06T01:39:14.500Z,0.07
2016-12-06T01:40:14.483Z,0.12
2016-12-06T01:41:14.532Z,0.12
2016-12-06T01:42:14.480Z,0.02
2016-12-06T01:43:14.581Z,0.1
2016-12-06T01:44:14.705Z,0.02
2016-12-06T01:45:14.571Z,0.04
2016-12-06T01:46:14.454Z,0.05
2016-12-06T01:47:14.471Z,0.05
2016-12-06T01:48:14.495Z,0.07
2016-12-06T01:49:14.543Z,0.12
2016-12-06T01:50:14.514Z,0.02
2016-12-06T01:51:15.852Z,0.08
2016-12-06T01:52:14.463Z,0.07
2016-12-06T01:53:14.441Z,0.01
2016-12-06T01:54:14.552Z,0.08
2016-12-06T01:55:14.531Z,0.01
2016-12-06T01:56:14.432Z,0.08
2016-12-06T01:57:14.491Z,-0.02
2016-12-06T01:58:14.571Z,0.1
2016-12-06T01:59:14.541Z,0.1
2016-12-06T02:00:14.499Z,0.08
2016-12-06T02:01:14.465Z,-0.01
2016-12-06T02:02:14.526Z,0.1
2016-12-06T02:03:14.552Z,0.08
2016-12-06T02:04:14.509Z,0.12
2016-12-06T02:05:14.530Z,0.23
2016-12-06T02:06:14.471Z,0.15
2016-12-06T02:07:14.576Z,0.26
2016-12-06T02:08:14.539Z,0.16
2016-12-06T02:09:14.522Z,0.16
2016-12-06T02:10:14.603Z,0.26
2016-12-06T02:11:14.811Z,0.23
2016-12-06T02:12:14.672Z,0.22
2016-12-06T02:13:14.463Z,0.23
2016-12-06T02:14:14.653Z,0.22
2016-12-06T02:15:14.682Z,0.28
2016-12-06T02:16:14.596Z,0.23
2016-12-06T02:17:14.642Z,0.33
2016-12-06T02:18:14.535Z,0.26
2016-12-06T02:19:14.500Z,0.25
2016-12-06T02:20:14.461Z,0.25
2016-12-06T02:21:14.563Z,0.3
2016-12-06T02:22:14.502Z,0.23
2016-12-06T02:23:14.613Z,0.23
2016-12-06T02:24:14.745Z,0.13
2016-12-06T02:25:14.694Z,0.28
2016-12-06T02:26:14.495Z,0.23
2016-12-06T02:27:14.554Z,0.19
2016-12-06T02:28:14.453Z,0.16
2016-12-06T02:29:14.523Z,0.12
2016-12-06T02:30:14.468Z,0.17
2016-12-06T02:31:14.883Z,0.12
2016-12-06T02:32:14.446Z,0.15
2016-12-06T02:33:14.773Z,0.19
2016-12-06T02:34:14.486Z,0.12
2016-12-06T02:35:15.223Z,0.17
2016-12-06T02:36:14.799Z,0.08
2016-12-06T02:37:14.572Z,0.12
2016-12-06T02:38:14.469Z,0.15
2016-12-06T02:39:14.671Z,0.13
2016-12-06T02:40:14.452Z,0.12
2016-12-06T02:41:14.583Z,0.08
2016-12-06T02:42:14.502Z,0.1
2016-12-06T02:43:14.700Z,0.12
2016-12-06T02:44:14.533Z,0.12
2016-12-06T02:45:14.536Z,0.08
2016-12-06T02:46:14.505Z,0.1
2016-12-06T02:47:14.508Z,0.15
2016-12-06T02:48:14.512Z,0.17
2016-12-06T02:49:14.639Z,0.04
2016-12-06T02:50:14.482Z,0.08
2016-12-06T02:51:14.551Z,0.02
2016-12-06T02:52:15.183Z,0.2
2016-12-06T02:53:14.510Z,0.07
2016-12-06T02:54:14.469Z,0.01
2016-12-06T02:55:14.593Z,-0.01
2016-12-06T02:56:14.633Z,0.1
2016-12-06T02:57:14.703Z,-0.02
2016-12-06T02:58:14.767Z,0.04
2016-12-06T02:59:14.471Z,-0.06
2016-12-06T03:00:14.510Z,0.02
2016-12-06T03:01:14.483Z,0.08
2016-12-06T03:02:14.580Z,0.01
2016-12-06T03:03:14.690Z,-0.01
2016-12-06T03:04:14.630Z,0.02
2016-12-06T03:05:14.564Z,-0.01
2016-12-06T03:06:14.515Z,0.08
2016-12-06T03:07:14.535Z,0.12
2016-12-06T03:08:14.592Z,-0.02
2016-12-06T03:09:14.521Z,0.05
2016-12-06T03:10:14.554Z,-0.01
2016-12-06T03:11:14.523Z,-0.02
2016-12-06T03:12:14.595Z,0.02
2016-12-06T03:13:14.552Z,-0.01
2016-12-06T03:14:14.665Z,0.05
2016-12-06T03:15:14.554Z,0.02
2016-12-06T03:16:14.612Z,-0.02
2016-12-06T03:17:14.523Z,0.02
2016-12-06T03:18:14.673Z,-0.03
2016-12-06T03:19:14.580Z,0.02
2016-12-06T03:20:14.602Z,-0.03
2016-12-06T03:21:14.567Z,-0.03
2016-12-06T03:22:14.583Z,-0.05
2016-12-06T03:23:14.545Z,0.05
2016-12-06T03:24:14.563Z,0.1
2016-12-06T03:25:14.543Z,-0.01
2016-12-06T03:26:14.662Z,0.05
2016-12-06T03:27:14.571Z,-0.02
2016-12-06T03:28:14.635Z,-0.01
2016-12-06T03:29:14.578Z,-0.01
2016-12-06T03:30:14.623Z,-0.05
2016-12-06T03:31:14.594Z,-0.03
2016-12-06T03:32:14.721Z,-0.14
2016-12-06T03:33:14.820Z,-0.03
2016-12-06T03:34:14.864Z,0.07
2016-12-06T03:35:15.430Z,-0.03
2016-12-06T03:40:32.740Z,0.04
2016-12-06T03:40:44.713Z,0.01
2016-12-06T03:41:44.630Z,-0.03
2016-12-06T03:42:44.285Z,0.04
2016-12-06T03:43:44.300Z,-0.01
2016-12-06T03:44:44.354Z,-0.06
2016-12-06T03:45:44.451Z,-0.06
2016-12-06T03:46:44.295Z,0.02
2016-12-06T03:47:44.623Z,-0.03
2016-12-06T03:48:44.454Z,-0.02
2016-12-06T03:49:44.673Z,0.04
2016-12-06T03:50:44.793Z,0.07
2016-12-06T03:51:44.414Z,0.04
2016-12-06T03:52:44.416Z,0.01
2016-12-06T03:53:44.501Z,-0.03
2016-12-06T03:54:44.334Z,-0.01
2016-12-06T03:55:44.751Z,0.01
2016-12-06T03:56:44.364Z,0.01
2016-12-06T03:57:44.387Z,-0.01
2016-12-06T03:58:44.397Z,0.07
2016-12-06T03:59:44.562Z,-0.03
2016-12-06T04:00:44.322Z,0.1
2016-12-06T04:01:44.453Z,0.02
2016-12-06T04:02:44.314Z,0.15
2016-12-06T04:03:44.569Z,0.05
2016-12-06T04:04:44.425Z,0.05
2016-12-06T04:05:44.356Z,-0.01
2016-12-06T04:06:44.407Z,0.12
2016-12-06T04:07:44.387Z,-0.01
2016-12-06T04:08:44.385Z,-0.01
2016-12-06T04:09:44.392Z,-0.02
2016-12-06T04:10:44.341Z,-0.02
2016-12-06T04:11:44.451Z,0.01
2016-12-06T04:12:44.378Z,-0.01
2016-12-06T04:13:44.406Z,0.04
2016-12-06T04:14:44.347Z,0.04
2016-12-06T04:15:44.473Z,-0.03
2016-12-06T04:16:44.355Z,-0.02
2016-12-06T04:17:44.543Z,0.01
2016-12-06T04:18:44.581Z,0.01
2016-12-06T04:19:44.719Z,0.02
2016-12-06T04:20:44.551Z,0.02
2016-12-06T04:21:44.587Z,0.02
2016-12-06T04:22:44.718Z,-0.02
2016-12-06T04:23:44.548Z,-0.03
2016-12-06T04:24:44.520Z,-0.01
2016-12-06T04:25:44.713Z,0.04
2016-12-06T04:26:44.521Z,0.01
2016-12-06T04:27:44.820Z,0.04
2016-12-06T04:28:44.754Z,0.07
2016-12-06T04:29:44.530Z,-0.03
2016-12-06T04:30:44.570Z,0.02
2016-12-06T04:31:44.591Z,0.04
2016-12-06T04:32:44.351Z,-0.03
2016-12-06T04:33:44.460Z,0.01
2016-12-06T04:34:44.557Z,-0.01
2016-12-06T04:35:44.562Z,-0.05
2016-12-06T04:36:44.823Z,0.08
2016-12-06T04:37:44.463Z,0.07
2016-12-06T04:38:46.530Z,0.05
2016-12-06T04:39:44.359Z,-0.06
2016-12-06T04:40:44.410Z,-0.03
2016-12-06T04:41:44.483Z,0.01
2016-12-06T04:42:44.843Z,-0.09
2016-12-06T04:43:44.537Z,-0.01
2016-12-06T04:44:44.552Z,0.07
2016-12-06T04:45:44.562Z,-0.05
2016-12-06T04:46:44.582Z,0.01
2016-12-06T04:47:44.572Z,0.02
2016-12-06T04:48:44.531Z,-0.03
2016-12-06T04:49:44.595Z,0.01
2016-12-06T04:50:44.735Z,-0.03
2016-12-06T04:51:44.588Z,-0.09
2016-12-06T04:52:44.344Z,-0.01
2016-12-06T04:53:44.431Z,0.04
2016-12-06T04:54:44.556Z,-0.01
2016-12-06T04:55:44.561Z,-0.03
2016-12-06T04:56:44.418Z,0.08
2016-12-06T04:57:44.453Z,0.07
2016-12-06T04:58:44.863Z,0.04
2016-12-06T04:59:44.620Z,0.01
2016-12-06T05:00:44.846Z,-0.02
2016-12-06T05:01:44.628Z,-0.01
2016-12-06T05:02:44.693Z,0.07
2016-12-06T05:03:44.752Z,0.01
2016-12-06T05:04:44.649Z,0.01
2016-12-06T05:05:44.963Z,-0.02
2016-12-06T05:06:44.795Z,0.04
2016-12-06T05:07:45.042Z,0.05
2016-12-06T05:08:46.690Z,0.07
2016-12-06T05:09:44.506Z,-0.03
2016-12-06T05:10:45.011Z,0.13
2016-12-06T05:11:44.858Z,0.05
2016-12-06T05:12:44.690Z,0.01
2016-12-06T05:13:44.873Z,0.02
2016-12-06T05:14:44.921Z,0.13
2016-12-06T05:15:45.035Z,0.04
2016-12-06T05:16:44.595Z,0.12
2016-12-06T05:17:45.005Z,0.07
2016-12-06T05:18:44.782Z,0.15
2016-12-06T05:19:44.787Z,0.1
2016-12-06T05:20:46.160Z,0.08
2016-12-06T05:21:44.694Z,-0.01
2016-12-06T05:22:44.783Z,0.04
2016-12-06T05:23:44.881Z,0.13
2016-12-06T05:24:44.801Z,-0.03
2016-12-06T05:25:44.770Z,0.01
2016-12-06T05:26:45.010Z,0.1
2016-12-06T05:27:45.183Z,0.04
2016-12-06T05:28:45.082Z,0.05
2016-12-06T05:29:45.186Z,0.01
2016-12-06T05:30:44.993Z,-0.02
2016-12-06T05:31:45.398Z,0.05
2016-12-06T05:32:44.833Z,0.01
2016-12-06T05:33:45.091Z,-0.03
2016-12-06T05:34:45.100Z,0.01
2016-12-06T05:35:45.312Z,0.08
2016-12-06T05:36:45.755Z,0.07
2016-12-06T05:37:45.216Z,0.04
2016-12-06T05:38:45.591Z,-0.01
2016-12-06T05:39:45.264Z,-0.03
2016-12-06T05:40:45.798Z,-0.08
2016-12-06T05:41:44.930Z,-0.06
2016-12-06T05:42:46.764Z,-0.12
2016-12-06T05:43:46.656Z,-0.09
2016-12-06T05:44:45.919Z,-0.01
2016-12-06T05:45:46.632Z,-0.03
2016-12-06T05:46:46.533Z,-0.09
2016-12-06T05:47:47.086Z,-0.06
2016-12-06T05:48:46.561Z,-0.08
2016-12-06T05:49:46.804Z,-0.09
2016-12-06T05:50:46.701Z,-0.05
2016-12-06T05:51:47.158Z,0.01
2016-12-06T05:52:47.272Z,-0.14
2016-12-06T05:53:46.715Z,-0.09
2016-12-06T05:54:49.731Z,-0.06
2016-12-06T05:55:47.735Z,-0.09
2016-12-06T05:56:47.421Z,-0.14
2016-12-06T05:57:47.594Z,-0.05
2016-12-06T05:58:48.314Z,-0.08
2016-12-06T05:59:47.776Z,-0.05
2016-12-06T06:00:47.484Z,-0.02
2016-12-06T06:01:48.200Z,-0.03
2016-12-06T06:02:48.253Z,-0.16
2016-12-06T06:03:47.848Z,-0.19
2016-12-06T06:04:48.048Z,-0.23
2016-12-06T06:05:48.576Z,-0.17
2016-12-06T06:06:47.793Z,-0.21
2016-12-06T06:07:47.953Z,-0.23
2016-12-06T06:08:48.860Z,-0.16
2016-12-06T06:09:46.879Z,-0.17
2016-12-06T06:10:48.196Z,-0.26
2016-12-06T06:11:46.821Z,-0.2
2016-12-06T06:12:46.901Z,-0.24
2016-12-06T06:13:47.277Z,-0.27
2016-12-06T06:14:47.640Z,-0.23
2016-12-06T06:15:47.763Z,-0.23
2016-12-06T06:16:47.089Z,-0.24
2016-12-06T06:17:47.275Z,-0.21
2016-12-06T06:18:47.502Z,-0.3
2016-12-06T06:19:47.892Z,-0.35
2016-12-06T06:20:47.760Z,-0.24
2016-12-06T06:21:48.643Z,-0.21
2016-12-06T06:22:48.463Z,-0.24
2016-12-06T06:23:47.624Z,-0.27
2016-12-06T06:24:48.181Z,-0.47
2016-12-06T06:25:48.118Z,-0.39
2016-12-06T06:26:47.553Z,-0.42
2016-12-06T06:27:47.709Z,-0.38
2016-12-06T06:28:48.283Z,-0.5
2016-12-06T06:29:47.386Z,-0.35
2016-12-06T06:30:47.339Z,-0.42
2016-12-06T06:31:47.109Z,-0.47
2016-12-06T06:32:47.659Z,-0.5
2016-12-06T06:33:47.280Z,-0.39
2016-12-06T06:34:47.547Z,-0.49
2016-12-06T06:35:47.812Z,-0.45
2016-12-06T06:36:47.156Z,-0.38
2016-12-06T06:37:47.394Z,-0.38
2016-12-06T06:38:46.828Z,-0.38
2016-12-06T06:39:47.163Z,-0.34
2016-12-06T06:40:46.889Z,-0.37
2016-12-06T06:41:46.812Z,-0.49
2016-12-06T06:42:47.070Z,-0.3
2016-12-06T06:43:46.862Z,-0.21
2016-12-06T06:44:47.115Z,-0.21
2016-12-06T06:45:47.085Z,-0.32
2016-12-06T06:46:51.334Z,-0.3
2016-12-06T06:47:47.371Z,-0.31
2016-12-06T06:48:47.360Z,-0.32
2016-12-06T06:49:46.774Z,-0.32
2016-12-06T06:50:47.145Z,-0.23
2016-12-06T06:51:49.174Z,-0.21
2016-12-06T06:52:46.215Z,-0.34
2016-12-06T06:53:46.746Z,-0.27
2016-12-06T06:54:46.411Z,-0.35
2016-12-06T06:55:46.944Z,-0.32
2016-12-06T06:56:46.687Z,-0.27
2016-12-06T06:57:46.558Z,-0.2
2016-12-06T06:58:46.460Z,-0.27
2016-12-06T06:59:45.874Z,-0.27
2016-12-06T07:00:46.557Z,-0.35
2016-12-06T07:01:46.807Z,-0.35
2016-12-06T07:02:46.854Z,-0.47
2016-12-06T07:03:49.241Z,-0.49
2016-12-06T07:04:48.072Z,-0.5
2016-12-06T07:05:47.209Z,-0.45
2016-12-06T07:06:46.866Z,-0.44
2016-12-06T07:07:47.419Z,-0.44
2016-12-06T07:08:49.576Z,-0.34
2016-12-06T07:09:49.619Z,-0.37
2016-12-06T07:10:48.137Z,-0.38
2016-12-06T07:11:47.751Z,-0.34
2016-12-06T07:12:46.990Z,-0.41
2016-12-06T07:13:47.748Z,-0.44
2016-12-06T07:14:47.251Z,-0.42
2016-12-06T07:15:47.768Z,-0.31
2016-12-06T07:16:47.112Z,-0.45
2016-12-06T07:17:47.032Z,-0.52
2016-12-06T07:18:47.114Z,-0.5
2016-12-06T07:19:49.208Z,-0.37
2016-12-06T07:20:47.454Z,-0.42
2016-12-06T07:21:47.631Z,-0.47
2016-12-06T07:22:48.550Z,-0.42
2016-12-06T07:23:49.784Z,-0.45
2016-12-06T07:24:48.251Z,-0.38
2016-12-06T07:25:49.081Z,-0.47
2016-12-06T07:26:47.809Z,-0.45
2016-12-06T07:27:48.281Z,-0.5
2016-12-06T07:28:48.480Z,-0.49
2016-12-06T07:29:49.280Z,-0.47
2016-12-06T07:30:48.992Z,-0.53
2016-12-06T07:31:47.014Z,-0.59
2016-12-06T07:32:48.835Z,-0.53
2016-12-06T07:33:48.737Z,-0.53
2016-12-06T07:34:48.883Z,-0.56
2016-12-06T07:35:47.724Z,-0.53
2016-12-06T07:36:47.676Z,-0.47
2016-12-06T07:37:47.819Z,-0.53
2016-12-06T07:38:50.437Z,-0.52
2016-12-06T07:39:48.493Z,-0.47
2016-12-06T07:40:46.971Z,-0.45
2016-12-06T07:41:47.260Z,-0.45
2016-12-06T07:42:47.672Z,-0.52
2016-12-06T07:43:48.323Z,-0.44
2016-12-06T07:44:47.431Z,-0.38
2016-12-06T07:45:46.849Z,-0.44
2016-12-06T07:46:45.866Z,-0.45
2016-12-06T07:47:46.434Z,-0.45
2016-12-06T07:48:46.318Z,-0.55
2016-12-06T07:49:46.775Z,-0.42
2016-12-06T07:50:48.831Z,-0.49
2016-12-06T07:51:48.267Z,-0.39
2016-12-06T07:52:47.869Z,-0.35
2016-12-06T07:53:47.652Z,-0.41
2016-12-06T07:54:46.868Z,-0.32
2016-12-06T07:55:47.607Z,-0.31
2016-12-06T07:56:50.572Z,-0.27
2016-12-06T07:57:48.471Z,-0.39
2016-12-06T07:58:47.557Z,-0.3
2016-12-06T07:59:48.590Z,-0.3
2016-12-06T08:00:47.794Z,-0.23
2016-12-06T08:01:48.071Z,-0.32
2016-12-06T08:02:48.398Z,-0.23
2016-12-06T08:03:47.008Z,-0.16
2016-12-06T08:04:48.840Z,-0.06
2016-12-06T08:05:48.495Z,-0.16
2016-12-06T08:06:47.051Z,-0.06
2016-12-06T08:07:48.243Z,-0.12
2016-12-06T08:08:49.656Z,-0.05
2016-12-06T08:09:49.287Z,-0.01
2016-12-06T08:10:51.334Z,-0.08
2016-12-06T08:11:49.557Z,-0.02
2016-12-06T08:12:47.593Z,0.1
2016-12-06T08:13:46.930Z,0.05
2016-12-06T08:14:48.730Z,0.07
2016-12-06T08:15:47.778Z,0.15
2016-12-06T08:16:47.272Z,0.1
2016-12-06T08:17:48.058Z,0.17
2016-12-06T08:18:48.383Z,0.16
2016-12-06T08:19:49.011Z,0.28
2016-12-06T08:20:48.535Z,0.3
2016-12-06T08:21:49.851Z,0.22
2016-12-06T08:22:49.092Z,0.19
2016-12-06T08:23:49.538Z,0.31
2016-12-06T08:24:47.445Z,0.3
2016-12-06T08:25:47.649Z,0.25
2016-12-06T08:26:46.836Z,0.44
2016-12-06T08:27:46.917Z,0.26
2016-12-06T08:28:48.000Z,0.38
2016-12-06T08:29:48.283Z,0.48
2016-12-06T08:30:47.855Z,0.51
2016-12-06T08:31:47.795Z,0.51
2016-12-06T08:32:48.820Z,0.57
2016-12-06T08:33:49.766Z,0.59
2016-12-06T08:34:49.372Z,0.6
2016-12-06T08:35:49.965Z,0.64
2016-12-06T08:36:50.860Z,0.84
2016-12-06T08:37:52.618Z,0.81
2016-12-06T08:38:51.549Z,0.81
2016-12-06T08:39:54.282Z,0.82
2016-12-06T08:40:49.019Z,0.93
2016-12-06T08:41:49.777Z,0.9
2016-12-06T08:42:49.452Z,1.02
2016-12-06T08:43:49.337Z,0.99
2016-12-06T08:44:50.715Z,0.96
2016-12-06T08:45:49.306Z,1.08
2016-12-06T08:46:48.743Z,1.11
2016-12-06T08:47:48.781Z,1.21
2016-12-06T08:48:49.913Z,1.28
2016-12-06T08:49:49.135Z,1.28
2016-12-06T08:50:48.777Z,1.32
2016-12-06T08:51:47.936Z,1.26
2016-12-06T08:52:52.197Z,1.36
2016-12-06T08:53:49.293Z,1.47
2016-12-06T08:54:48.584Z,1.52
2016-12-06T08:55:49.829Z,1.56
2016-12-06T08:56:50.587Z,1.63
2016-12-06T08:57:49.091Z,1.75
2016-12-06T08:58:49.696Z,1.74
2016-12-06T08:59:49.622Z,1.77
2016-12-06T09:00:49.649Z,1.85
2016-12-06T09:01:49.964Z,1.9
2016-12-06T09:02:49.866Z,1.86
2016-12-06T09:03:48.151Z,1.95
2016-12-06T09:04:49.447Z,2
2016-12-06T09:05:48.236Z,1.93
2016-12-06T09:06:48.706Z,2
2016-12-06T09:07:49.890Z,2.02
2016-12-06T09:08:49.624Z,2.04
2016-12-06T09:09:49.495Z,2.2
2016-12-06T09:10:50.277Z,2.19
2016-12-06T09:11:49.596Z,2.15
2016-12-06T09:12:50.213Z,2.19
2016-12-06T09:13:49.129Z,2.29
2016-12-06T09:14:50.044Z,2.41
2016-12-06T09:15:50.083Z,2.38
2016-12-06T09:16:49.721Z,2.47
2016-12-06T09:17:50.745Z,2.5
2016-12-06T09:18:49.778Z,2.58
2016-12-06T09:19:49.785Z,2.55
2016-12-06T09:20:49.335Z,2.69
2016-12-06T09:21:48.791Z,2.69
2016-12-06T09:22:49.407Z,2.76
2016-12-06T09:23:48.336Z,2.86
2016-12-06T09:24:47.455Z,2.97
2016-12-06T09:25:48.049Z,2.99
2016-12-06T09:26:49.103Z,3.12
2016-12-06T09:27:53.192Z,3.3
2016-12-06T09:28:51.325Z,3.26
2016-12-06T09:29:49.697Z,3.34
2016-12-06T09:30:48.248Z,3.41
2016-12-06T09:31:49.085Z,3.52
2016-12-06T09:32:46.624Z,3.52
2016-12-06T09:33:47.663Z,3.68
2016-12-06T09:34:47.272Z,3.67
2016-12-06T09:35:47.298Z,3.7
2016-12-06T09:36:46.588Z,3.96
2016-12-06T09:37:46.654Z,4.26
2016-12-06T09:38:48.274Z,4.57
2016-12-06T09:39:47.497Z,4.67
2016-12-06T09:40:49.609Z,4.61
2016-12-06T09:41:48.035Z,5.05
2016-12-06T09:42:49.125Z,5.19
2016-12-06T09:43:49.360Z,5.4
2016-12-06T09:44:48.057Z,5.7
2016-12-06T09:45:47.849Z,5.83
2016-12-06T09:46:48.527Z,5.92
2016-12-06T09:47:49.455Z,5.77
2016-12-06T09:48:57.901Z,6.17
2016-12-06T09:49:50.337Z,6.36
2016-12-06T09:50:49.292Z,6.42
2016-12-06T09:51:49.113Z,6.64
2016-12-06T09:52:48.013Z,6.64
2016-12-06T09:53:48.880Z,6.68
2016-12-06T09:54:47.245Z,6.89
2016-12-06T09:55:48.376Z,6.79
2016-12-06T09:56:47.854Z,6.87
2016-12-06T09:57:47.044Z,6.93
2016-12-06T09:58:48.377Z,7.16
2016-12-06T09:59:47.904Z,6.86
2016-12-06T10:00:48.911Z,6.65
2016-12-06T10:01:48.606Z,6.89
2016-12-06T10:02:47.372Z,6.94
2016-12-06T10:03:47.197Z,6.54
2016-12-06T10:04:47.525Z,6.17
2016-12-06T10:05:47.407Z,5.93
2016-12-06T10:06:50.094Z,5.81
2016-12-06T10:07:48.481Z,5.47
2016-12-06T10:08:48.144Z,5.47
2016-12-06T10:09:48.401Z,5.59
2016-12-06T10:10:47.648Z,5.3
2016-12-06T10:11:48.221Z,5.22
2016-12-06T10:12:49.018Z,5.08
2016-12-06T10:13:49.866Z,4.94
2016-12-06T10:14:48.172Z,5.06
2016-12-06T10:15:50.704Z,5.05
2016-12-06T10:16:46.828Z,5.08
2016-12-06T10:17:47.305Z,4.87
2016-12-06T10:18:47.932Z,4.69
2016-12-06T10:19:50.255Z,4.49
2016-12-06T10:20:51.450Z,4.49
2016-12-06T10:22:00.827Z,4.49
2016-12-06T10:22:49.251Z,4.47
2016-12-06T10:23:47.558Z,4.46
2016-12-06T10:24:46.748Z,4.31
2016-12-06T10:25:47.595Z,4.26
2016-12-06T10:26:47.178Z,4.21
2016-12-06T10:27:47.074Z,4.17
2016-12-06T10:28:46.833Z,4.14
2016-12-06T10:29:46.834Z,4.18
2016-12-06T10:30:47.312Z,4.31
2016-12-06T10:31:46.992Z,4.31
2016-12-06T10:32:49.243Z,4.26
2016-12-06T10:33:46.332Z,4.24
2016-12-06T10:34:47.450Z,4.29
2016-12-06T10:35:48.130Z,4.02
2016-12-06T10:36:47.859Z,4.06
2016-12-06T10:37:47.045Z,4.14
2016-12-06T10:38:47.765Z,4.17
2016-12-06T10:39:47.982Z,4.26
2016-12-06T10:40:46.662Z,4.31
2016-12-06T10:41:47.329Z,4.28
2016-12-06T10:42:47.585Z,4.28
2016-12-06T10:43:48.256Z,4.1
2016-12-06T10:44:46.894Z,4.17
2016-12-06T10:45:46.202Z,4.24
2016-12-06T10:46:48.583Z,4.25
2016-12-06T10:47:47.853Z,4.24
2016-12-06T10:48:47.508Z,4.18
2016-12-06T10:49:48.833Z,4.28
2016-12-06T10:50:46.500Z,4.24
2016-12-06T10:51:46.011Z,4.28
2016-12-06T10:52:48.158Z,4.18
2016-12-06T10:53:48.669Z,4.26
2016-12-06T10:54:47.794Z,4.38
2016-12-06T10:55:48.177Z,4.39
2016-12-06T10:56:47.542Z,4.25
2016-12-06T10:57:46.910Z,4.38
2016-12-06T10:58:47.030Z,4.42
2016-12-06T10:59:46.744Z,4.5
2016-12-06T11:00:48.151Z,4.49
2016-12-06T11:01:47.206Z,4.39
2016-12-06T11:02:46.663Z,4.53
2016-12-06T11:03:48.314Z,4.47
2016-12-06T11:04:46.816Z,4.49
2016-12-06T11:05:46.419Z,4.65
2016-12-06T11:06:47.395Z,4.75
2016-12-06T11:07:49.300Z,5.01
2016-12-06T11:08:51.349Z,5.24
2016-12-06T11:09:50.975Z,5.33
2016-12-06T11:10:50.900Z,5.48
2016-12-06T11:11:47.993Z,5.63
2016-12-06T11:12:51.015Z,5.77
2016-12-06T11:13:54.747Z,5.8
2016-12-06T11:14:48.012Z,6.05
2016-12-06T11:15:48.232Z,5.96
2016-12-06T11:16:46.291Z,6.16
2016-12-06T11:17:47.919Z,6.33
2016-12-06T11:18:47.725Z,6.43
2016-12-06T11:19:47.235Z,6.5
2016-12-06T11:20:48.582Z,6.53
2016-12-06T11:21:46.472Z,6.64
2016-12-06T11:22:47.772Z,6.81
2016-12-06T11:23:46.488Z,6.94
2016-12-06T11:24:46.708Z,6.86
2016-12-06T11:25:47.215Z,6.89
2016-12-06T11:26:47.516Z,6.9
2016-12-06T11:27:47.780Z,6.91
2016-12-06T11:28:47.648Z,7.12
2016-12-06T11:29:47.774Z,7.01
2016-12-06T11:30:47.850Z,7.09
2016-12-06T11:31:46.741Z,7.04
2016-12-06T11:32:46.943Z,7
2016-12-06T11:33:47.217Z,7.04
2016-12-06T11:34:49.078Z,7.09
2016-12-06T11:35:49.215Z,7.23
2016-12-06T11:36:48.153Z,7.18
2016-12-06T11:37:49.867Z,7.16
2016-12-06T11:38:48.499Z,7.16
2016-12-06T11:39:47.999Z,7.16
2016-12-06T11:40:46.929Z,7.11
2016-12-06T11:41:50.048Z,7.05
2016-12-06T11:42:47.535Z,6.97
2016-12-06T11:43:50.712Z,7.08
2016-12-06T11:44:47.194Z,7.23
2016-12-06T11:45:47.203Z,7.08
2016-12-06T11:46:46.702Z,7.23
2016-12-06T11:47:55.802Z,7.04
2016-12-06T11:48:49.003Z,7.15
2016-12-06T11:49:48.868Z,7.18
2016-12-06T11:50:48.135Z,7.19
2016-12-06T11:51:48.167Z,7.19
2016-12-06T11:52:49.035Z,7.15
2016-12-06T11:53:48.583Z,7.23
2016-12-06T11:54:48.658Z,7.27
2016-12-06T11:55:47.805Z,7.36
2016-12-06T11:56:47.596Z,7.42
2016-12-06T11:57:47.201Z,7.5
2016-12-06T11:58:46.553Z,7.48
2016-12-06T11:59:47.923Z,7.6
2016-12-06T12:00:47.094Z,7.57
2016-12-06T12:01:47.556Z,7.58
2016-12-06T12:02:47.255Z,7.55
2016-12-06T12:03:47.123Z,7.63
2016-12-06T12:04:46.600Z,7.67
2016-12-06T12:05:46.427Z,7.7
2016-12-06T12:06:47.279Z,7.69
2016-12-06T12:07:46.632Z,7.5
2016-12-06T12:08:47.352Z,7.58
2016-12-06T12:09:47.035Z,7.76
2016-12-06T12:10:48.023Z,7.79
2016-12-06T12:11:47.892Z,7.71
2016-12-06T12:12:48.236Z,7.71
2016-12-06T12:13:46.515Z,7.82
2016-12-06T12:14:47.866Z,7.86
2016-12-06T12:15:46.846Z,7.84
2016-12-06T12:16:47.296Z,7.86
2016-12-06T12:17:47.605Z,7.91
2016-12-06T12:18:47.314Z,7.92
2016-12-06T12:19:47.779Z,7.73
2016-12-06T12:20:47.247Z,7.77
2016-12-06T12:21:47.742Z,7.74
2016-12-06T12:22:47.513Z,7.79
2016-12-06T12:23:46.760Z,7.81
2016-12-06T12:24:48.690Z,7.71
2016-12-06T12:25:48.644Z,7.74
2016-12-06T12:26:47.624Z,7.91
2016-12-06T12:27:47.722Z,7.86
2016-12-06T12:28:48.465Z,7.84
2016-12-06T12:29:50.294Z,7.88
2016-12-06T12:30:47.288Z,7.89
2016-12-06T12:31:48.240Z,7.96
2016-12-06T12:32:47.527Z,7.91
2016-12-06T12:33:47.850Z,7.91
2016-12-06T12:34:49.636Z,7.91
2016-12-06T12:35:48.763Z,7.86
2016-12-06T12:40:24.534Z,8.12
2016-12-06T12:41:22.585Z,8.04
2016-12-06T12:42:23.307Z,8.06
2016-12-06T12:43:25.351Z,8.17
2016-12-06T12:44:22.240Z,8.14
2016-12-06T12:45:21.381Z,8.2
2016-12-06T12:46:21.512Z,8.14
2016-12-06T12:47:21.381Z,8.21
2016-12-06T12:48:21.723Z,8.03
2016-12-06T12:49:21.649Z,8.18
2016-12-06T12:50:21.590Z,8.17
2016-12-06T12:51:21.607Z,8.12
2016-12-06T12:52:23.668Z,8.07
2016-12-06T12:53:21.506Z,8.07
2016-12-06T12:54:21.888Z,8.02
2016-12-06T12:55:22.834Z,8.04
2016-12-06T12:56:23.211Z,8.06
2016-12-06T12:57:22.002Z,7.96
2016-12-06T12:58:22.075Z,7.96
2016-12-06T12:59:22.130Z,7.96
2016-12-06T13:00:21.679Z,8.09
2016-12-06T13:01:22.645Z,8.04
2016-12-06T13:02:22.562Z,8.13
2016-12-06T13:03:22.134Z,8.14
2016-12-06T13:04:21.298Z,8.25
2016-12-06T13:05:21.331Z,8.14
2016-12-06T13:06:21.560Z,8.17
2016-12-06T13:07:21.917Z,8.17
2016-12-06T13:08:21.925Z,8.24
2016-12-06T13:09:21.470Z,8.13
2016-12-06T13:10:22.043Z,8.13
2016-12-06T13:11:22.205Z,8.2
2016-12-06T13:12:22.184Z,8.03
2016-12-06T13:13:22.496Z,8.17
2016-12-06T13:14:21.676Z,8.07
2016-12-06T13:15:23.897Z,8.04
2016-12-06T13:16:23.330Z,8.09
2016-12-06T13:17:21.862Z,8.13
2016-12-06T13:18:21.475Z,8.13
2016-12-06T13:19:22.472Z,8.14
2016-12-06T13:20:22.594Z,8.13